Time;durP1;ratioP1;P1;durP2;ratioP2;P2;SDS_P1;SDS_P2;PMS_P1;PMS_P2;Temp;Humidity;BMP_temperature;BMP_pressure;BME280_temperature;BME280_humidity;BME280_pressure;Samples;Min_cycle;Max_cycle;Signal;HPM_P1;HPM_P2
2022/04/23 00:01:00;;;;;;;13.90;12.60;;;;;;;14.76;49.31;98908.75;5000994;28;20890;-72
2022/04/23 00:03:26;;;;;;;13.93;12.53;;;;;;;14.68;48.92;98904.06;5007577;28;20888;-72
2022/04/23 00:05:51;;;;;;;14.40;13.03;;;;;;;14.67;48.95;98897.00;4994835;28;20410;-72
2022/04/23 00:08:16;;;;;;;15.30;13.80;;;;;;;14.69;49.00;98901.00;4995846;28;20408;-72
2022/04/23 00:10:42;;;;;;;14.90;13.27;;;;;;;14.54;49.36;98893.22;5033511;28;20417;-72
2022/04/23 00:13:07;;;;;;;15.60;14.10;;;;;;;14.37;49.74;98893.06;4992243;28;20423;-72
2022/04/23 00:15:39;;;;;;;16.65;14.90;;;;;;;14.24;50.08;98881.06;4996501;28;20449;-72
2022/04/23 00:18:09;;;;;;;16.02;14.13;;;;;;;14.10;50.63;98874.81;4998923;28;21017;-72
2022/04/23 00:20:39;;;;;;;15.63;14.00;;;;;;;14.06;50.85;98886.66;5003625;28;20491;-72
2022/04/23 00:23:05;;;;;;;15.07;13.50;;;;;;;14.09;50.85;98883.31;4984194;28;20397;-72
2022/04/23 00:25:31;;;;;;;16.10;14.48;;;;;;;14.18;50.47;98882.28;5008312;28;20496;-72
2022/04/23 00:27:57;;;;;;;15.77;14.17;;;;;;;14.27;50.51;98882.34;4997702;28;20565;-72
2022/04/23 00:30:23;;;;;;;16.73;14.97;;;;;;;14.30;50.54;98888.00;5002964;28;20445;-72
2022/04/23 00:32:48;;;;;;;14.90;13.47;;;;;;;14.30;50.18;98893.44;5005400;28;20903;-72
2022/04/23 00:35:15;;;;;;;15.60;13.95;;;;;;;14.33;50.24;98892.88;4994844;28;20785;-72
2022/04/23 00:37:41;;;;;;;16.05;14.38;;;;;;;14.36;50.13;98897.69;5004995;28;20524;-72
2022/04/23 00:40:08;;;;;;;18.93;13.67;;;;;;;14.35;50.08;98896.09;5002187;28;20414;-72
2022/04/23 00:43:01;;;;;;;15.52;13.98;;;;;;;14.40;50.17;98895.16;4996277;28;20979;-72
2022/04/23 00:45:27;;;;;;;16.00;14.40;;;;;;;14.33;50.17;98898.31;4982127;28;20833;-73
2022/04/23 00:47:53;;;;;;;17.50;14.50;;;;;;;14.35;50.28;98896.09;5001857;28;20961;-72
2022/04/23 00:50:21;;;;;;;15.45;13.93;;;;;;;14.35;50.10;98892.56;4990371;28;20450;-72
2022/04/23 00:52:52;;;;;;;15.88;14.15;;;;;;;14.35;50.38;98893.38;4993349;28;20404;-72
2022/04/23 00:55:18;;;;;;;16.17;14.48;;;;;;;14.37;50.17;98893.06;4992976;28;20459;-72
2022/04/23 00:57:44;;;;;;;16.73;14.50;;;;;;;14.29;50.45;98885.59;4987096;28;20428;-72
2022/04/23 01:00:09;;;;;;;17.67;14.73;;;;;;;14.15;51.02;98891.06;5031794;28;20430;-72
2022/04/23 01:02:36;;;;;;;17.00;14.60;;;;;;;14.17;51.29;98893.47;5003772;28;20419;-72
2022/04/23 01:05:02;;;;;;;16.58;14.27;;;;;;;14.14;51.20;98886.72;4992644;28;20449;-72
2022/04/23 01:07:28;;;;;;;17.13;14.88;;;;;;;14.11;51.14;98878.34;5000651;28;20415;-72
2022/04/23 01:09:53;;;;;;;16.58;14.93;;;;;;;14.06;51.48;98886.66;4995648;28;20398;-72
2022/04/23 01:12:19;;;;;;;17.03;15.40;;;;;;;14.08;51.17;98874.34;4997715;28;20414;-72
2022/04/23 01:15:00;;;;;;;16.98;15.25;;;;;;;14.06;51.21;98887.47;4985390;28;20430;-72
2022/04/23 01:17:26;;;;;;;18.90;15.45;;;;;;;14.04;51.46;98892.41;5003983;28;20397;-72
2022/04/23 01:19:52;;;;;;;18.27;14.63;;;;;;;14.04;51.53;98887.75;4996591;28;20909;-72
2022/04/23 01:22:17;;;;;;;16.40;14.50;;;;;;;14.07;51.36;98880.06;5038684;28;20492;-72
2022/04/23 01:24:43;;;;;;;17.87;16.00;;;;;;;13.96;51.54;98874.84;4989294;28;20416;-72
2022/04/23 01:27:10;;;;;;;17.85;15.95;;;;;;;13.88;51.89;98874.78;4991804;28;20401;-72
2022/04/23 01:29:36;;;;;;;16.90;15.15;;;;;;;13.81;51.97;98871.66;4985165;28;20406;-72
2022/04/23 01:32:05;;;;;;;18.90;16.42;;;;;;;13.76;52.10;98871.78;4988261;28;20406;-72
2022/04/23 01:34:31;;;;;;;17.77;16.08;;;;;;;13.76;52.03;98872.59;4980559;28;20519;-72
2022/04/23 01:36:56;;;;;;;17.95;16.15;;;;;;;13.71;52.28;98875.38;4993050;28;20408;-72
2022/04/23 01:39:21;;;;;;;18.13;16.30;;;;;;;13.62;52.47;98881.84;4993621;28;20406;-72
2022/04/23 01:41:47;;;;;;;19.40;15.95;;;;;;;13.54;52.79;98877.91;4989150;28;20482;-72
2022/04/23 01:44:13;;;;;;;18.43;16.53;;;;;;;13.58;52.55;98884.38;5007401;28;20386;-71
2022/04/23 01:46:38;;;;;;;21.50;17.08;;;;;;;13.54;52.63;98875.19;4997416;28;20482;-72
2022/04/23 01:49:03;;;;;;;18.90;16.60;;;;;;;13.55;52.89;98876.00;4992604;28;20456;-72
2022/04/23 01:51:29;;;;;;;19.47;17.40;;;;;;;13.56;52.73;98881.16;4985287;28;20887;-72
2022/04/23 01:53:54;;;;;;;24.20;17.87;;;;;;;13.48;52.95;98879.13;4981926;28;20425;-72
2022/04/23 01:56:19;;;;;;;18.63;16.80;;;;;;;13.50;53.18;98882.38;5006390;28;20403;-72
2022/04/23 01:58:44;;;;;;;18.50;16.67;;;;;;;13.52;52.75;98886.38;4990544;28;20429;-72
2022/04/23 02:01:10;;;;;;;18.93;15.87;;;;;;;13.51;53.06;98887.50;5001419;28;20759;-72
2022/04/23 02:03:35;;;;;;;18.93;16.73;;;;;;;13.53;52.76;98887.22;4978215;28;20423;-71
2022/04/23 02:06:01;;;;;;;18.08;15.90;;;;;;;13.54;52.54;98886.06;5007620;28;20405;-72
2022/04/23 02:08:26;;;;;;;18.20;16.43;;;;;;;13.48;52.95;98882.66;4988191;28;20439;-72
2022/04/23 02:10:52;;;;;;;17.92;16.02;;;;;;;13.36;53.43;98882.34;5003590;28;20428;-72
2022/04/23 02:13:17;;;;;;;16.63;15.02;;;;;;;13.35;53.46;98893.53;4996358;28;20394;-72
2022/04/23 02:15:42;;;;;;;18.77;16.47;;;;;;;13.28;53.74;98888.47;4996288;28;20410;-72
2022/04/23 02:18:08;;;;;;;17.83;16.10;;;;;;;13.25;53.98;98894.53;4990988;28;20397;-72
2022/04/23 02:20:34;;;;;;;17.77;15.88;;;;;;;13.31;53.93;98896.03;4984238;28;20419;-72
2022/04/23 02:22:59;;;;;;;19.65;16.33;;;;;;;13.37;53.74;98896.78;4990788;28;20488;-72
2022/04/23 02:25:24;;;;;;;18.77;16.77;;;;;;;13.34;53.86;98895.44;4997381;28;20438;-72
2022/04/23 02:27:50;;;;;;;18.27;16.45;;;;;;;13.35;53.62;98896.25;4992907;28;20847;-72
2022/04/23 02:30:18;;;;;;;19.77;17.17;;;;;;;13.33;53.73;98887.59;4989348;28;20494;-71
2022/04/23 02:32:44;;;;;;;18.42;16.63;;;;;;;13.30;54.00;98897.16;5003110;28;20404;-72
2022/04/23 02:35:11;;;;;;;18.67;16.87;;;;;;;13.27;53.71;98897.72;4997159;28;20445;-71
2022/04/23 02:37:36;;;;;;;18.90;16.70;;;;;;;13.23;53.88;98906.81;4995781;28;20768;-72
2022/04/23 02:40:03;;;;;;;18.95;17.00;;;;;;;13.13;54.02;98902.38;4997482;28;20405;-72
2022/04/23 02:42:29;;;;;;;18.70;16.90;;;;;;;13.13;54.13;98899.66;5003868;28;20482;-71
2022/04/23 02:44:54;;;;;;;18.43;16.50;;;;;;;13.16;54.21;98906.41;4999267;28;20416;-72
2022/04/23 02:47:19;;;;;;;18.40;16.52;;;;;;;13.15;54.03;98894.69;5000476;28;20418;-72
2022/04/23 02:49:45;;;;;;;18.30;16.37;;;;;;;13.12;54.08;98899.94;4984751;28;20547;-72
2022/04/23 02:52:10;;;;;;;20.13;18.00;;;;;;;13.05;54.24;98894.84;4987718;28;20747;-72
2022/04/23 02:54:35;;;;;;;19.27;17.27;;;;;;;13.00;54.32;98895.75;4989768;28;20414;-72
2022/04/23 02:57:01;;;;;;;21.63;17.17;;;;;;;12.99;54.72;98904.22;5011110;28;20944;-71
2022/04/23 02:59:26;;;;;;;19.90;17.87;;;;;;;12.99;54.78;98885.97;4995135;28;20413;-72
2022/04/23 03:01:52;;;;;;;18.80;16.77;;;;;;;13.00;54.85;98895.75;4995453;28;20418;-72
2022/04/23 03:04:17;;;;;;;18.55;16.67;;;;;;;13.00;54.80;98894.94;5009045;28;20431;-72
2022/04/23 03:06:44;;;;;;;20.20;18.00;;;;;;;13.00;54.53;98889.50;4995631;28;20448;-71
2022/04/23 03:09:09;;;;;;;18.85;17.00;;;;;;;12.98;54.70;98894.44;5008883;28;20394;-72
2022/04/23 03:11:34;;;;;;;20.13;17.93;;;;;;;12.89;55.07;98891.59;5003123;28;20417;-72
2022/04/23 03:14:00;;;;;;;20.23;17.73;;;;;;;12.74;55.51;98891.03;4996572;28;20508;-72
2022/04/23 03:16:26;;;;;;;19.27;17.03;;;;;;;12.70;55.66;98879.16;4993968;28;20410;-72
2022/04/23 03:18:53;;;;;;;18.50;16.60;;;;;;;12.76;55.69;98886.09;4985190;28;20442;-72
2022/04/23 03:21:18;;;;;;;21.15;17.65;;;;;;;12.77;55.46;98891.25;5000325;28;20404;-72
2022/04/23 03:23:43;;;;;;;18.80;16.90;;;;;;;12.74;55.68;98891.84;4995365;28;20426;-72
2022/04/23 03:26:08;;;;;;;19.33;17.43;;;;;;;12.69;55.93;98886.50;4990315;28;20966;-72
2022/04/23 03:28:35;;;;;;;19.35;17.27;;;;;;;12.66;55.72;98895.22;4998742;28;20430;-71
2022/04/23 03:31:00;;;;;;;19.90;17.63;;;;;;;12.66;55.93;98899.84;5000136;28;20423;-72
2022/04/23 03:33:25;;;;;;;18.83;17.00;;;;;;;12.63;56.20;98898.56;5008267;28;20420;-72
2022/04/23 03:35:51;;;;;;;19.80;17.70;;;;;;;12.59;56.36;98899.44;4992887;28;20451;-72
2022/04/23 03:38:17;;;;;;;19.27;17.23;;;;;;;12.62;56.12;98904.25;4999946;28;20470;-72
2022/04/23 03:40:42;;;;;;;20.08;17.98;;;;;;;12.49;56.46;98892.25;5003756;28;20417;-72
2022/04/23 03:43:07;;;;;;;19.58;17.48;;;;;;;12.41;56.84;98892.91;5008774;28;20409;-71
2022/04/23 03:45:33;;;;;;;20.13;17.93;;;;;;;12.44;56.60;98887.72;4983855;28;20994;-72
2022/04/23 03:47:59;;;;;;;19.17;17.15;;;;;;;12.46;56.69;98896.34;4989232;28;20737;-72
2022/04/23 03:50:24;;;;;;;19.13;17.13;;;;;;;12.40;56.96;98889.41;4999196;28;20417;-71
2022/04/23 03:52:50;;;;;;;19.45;17.33;;;;;;;12.30;57.29;98886.81;4979547;28;20421;-72
2022/04/23 03:55:15;;;;;;;18.37;16.50;;;;;;;12.32;57.50;98881.09;4976635;28;20495;-72
2022/04/23 03:57:45;;;;;;;21.40;17.03;;;;;;;12.31;57.17;98888.44;4982516;28;20408;-71
2022/04/23 04:00:11;;;;;;;20.27;16.50;;;;;;;12.28;57.52;98888.22;5001694;28;20412;-72
2022/04/23 04:02:36;;;;;;;18.20;16.30;;;;;;;12.30;57.52;98884.09;4992708;28;20420;-72
2022/04/23 04:05:01;;;;;;;18.53;16.53;;;;;;;12.35;57.15;98888.63;4996543;28;20406;-72
2022/04/23 04:07:27;;;;;;;18.83;16.83;;;;;;;12.23;57.75;98888.28;4994166;28;20488;-71
2022/04/23 04:09:52;;;;;;;18.88;16.88;;;;;;;12.20;57.97;98886.97;5008838;28;20387;-71
2022/04/23 04:12:17;;;;;;;19.00;17.00;;;;;;;12.23;57.88;98878.22;5001193;28;20392;-71
2022/04/23 04:14:43;;;;;;;17.67;15.87;;;;;;;12.27;57.89;98881.16;4988307;28;20735;-71
2022/04/23 04:17:10;;;;;;;18.15;16.27;;;;;;;12.08;58.40;98878.47;5008828;28;20396;-72
2022/04/23 04:19:36;;;;;;;17.75;15.75;;;;;;;12.13;58.35;98875.66;4994306;28;20490;-71
2022/04/23 04:22:04;;;;;;;17.65;15.75;;;;;;;12.21;58.08;98882.34;4998996;28;20550;-72
2022/04/23 04:24:31;;;;;;;18.52;16.15;;;;;;;12.14;58.50;98868.31;5002067;28;20916;-72
2022/04/23 04:26:57;;;;;;;17.70;15.80;;;;;;;12.12;58.55;98882.19;5002522;28;20394;-72
2022/04/23 04:29:24;;;;;;;17.23;15.52;;;;;;;12.19;58.37;98879.09;4996051;28;20908;-71
2022/04/23 04:31:51;;;;;;;18.13;16.23;;;;;;;12.17;58.50;98884.03;4999533;28;20457;-72
2022/04/23 04:34:32;;;;;;;18.48;16.48;;;;;;;12.09;58.80;98884.66;4995041;28;20418;-72
2022/04/23 04:37:06;;;;;;;18.20;16.00;;;;;;;12.06;59.03;98882.53;4994497;28;20425;-71
2022/04/23 04:39:31;;;;;;;16.13;14.52;;;;;;;12.07;59.03;98887.69;5000956;28;20409;-72
2022/04/23 04:41:57;;;;;;;17.40;15.68;;;;;;;12.09;59.04;98881.97;4994741;28;20420;-72
2022/04/23 04:44:22;;;;;;;17.90;15.47;;;;;;;12.13;58.93;98877.56;4999297;28;20770;-71
2022/04/23 04:46:47;;;;;;;17.92;15.68;;;;;;;12.06;59.33;98875.22;4982492;28;20493;-72
2022/04/23 04:49:13;;;;;;;16.63;14.93;;;;;;;11.99;59.70;98879.41;4997252;28;20884;-72
2022/04/23 04:51:39;;;;;;;15.27;13.85;;;;;;;11.97;59.95;98879.69;4995351;28;20462;-72
2022/04/23 04:54:05;;;;;;;16.43;13.20;;;;;;;11.88;60.46;98893.13;5004120;28;20730;-71
2022/04/23 04:56:30;;;;;;;15.83;14.23;;;;;;;11.85;61.19;98890.16;4997568;28;20419;-72
2022/04/23 04:58:55;;;;;;;15.43;13.77;;;;;;;11.75;61.53;98890.28;4995804;28;20408;-71
2022/04/23 05:01:21;;;;;;;14.73;13.25;;;;;;;11.70;62.00;98899.28;4995097;28;20409;-71
2022/04/23 05:03:46;;;;;;;15.00;13.43;;;;;;;11.70;62.02;98907.44;4997169;28;20885;-72
2022/04/23 05:06:12;;;;;;;14.63;13.27;;;;;;;11.70;62.45;98909.31;4992843;28;20423;-71
2022/04/23 05:08:38;;;;;;;14.80;13.32;;;;;;;11.64;62.56;98914.00;4994466;28;20410;-71
2022/04/23 05:11:04;;;;;;;14.30;12.70;;;;;;;11.65;62.58;98912.91;4993581;28;20825;-71
2022/04/23 05:13:31;;;;;;;14.48;13.02;;;;;;;11.63;62.86;98920.50;5001570;28;20726;-71
2022/04/23 05:15:57;;;;;;;14.50;13.10;;;;;;;11.64;62.77;98921.31;4998785;28;20890;-71
2022/04/23 05:18:22;;;;;;;14.47;13.07;;;;;;;11.50;63.41;98921.19;4992070;28;20495;-71
2022/04/23 05:20:48;;;;;;;13.90;12.53;;;;;;;11.51;63.52;98913.88;4994767;28;20397;-72
2022/04/23 05:23:14;;;;;;;13.73;12.32;;;;;;;11.60;63.48;98925.69;5000887;28;20400;-71
2022/04/23 05:25:39;;;;;;;13.45;12.15;;;;;;;11.65;63.27;98925.66;4999488;28;20399;-72
2022/04/23 05:28:05;;;;;;;13.30;11.90;;;;;;;11.67;63.01;98935.13;5005838;28;20956;-72
2022/04/23 05:30:30;;;;;;;12.87;11.47;;;;;;;11.62;63.48;98929.75;4988105;28;20406;-72
2022/04/23 05:32:56;;;;;;;13.18;11.88;;;;;;;11.70;63.03;98934.56;4994973;28;20405;-71
2022/04/23 05:35:21;;;;;;;13.47;12.17;;;;;;;11.73;63.28;98934.00;4988040;28;20411;-71
2022/04/23 05:37:46;;;;;;;12.98;11.68;;;;;;;11.77;63.17;98931.50;4996543;28;20773;-71
2022/04/23 05:40:12;;;;;;;13.23;11.83;;;;;;;11.76;63.36;98938.84;4997329;28;20488;-71
2022/04/23 05:42:38;;;;;;;19.73;11.77;;;;;;;11.73;63.46;98927.75;4985436;28;20576;-71
2022/04/23 05:45:04;;;;;;;11.98;10.80;;;;;;;11.74;63.10;98922.06;4992199;28;20418;-71
2022/04/23 05:47:30;;;;;;;11.77;10.57;;;;;;;11.79;63.09;98927.41;4988923;28;20830;-72
2022/04/23 05:49:55;;;;;;;12.23;10.97;;;;;;;11.86;62.87;98919.72;4994391;28;20398;-71
2022/04/23 05:52:20;;;;;;;12.40;11.20;;;;;;;11.90;62.86;98936.25;5001208;28;20405;-71
2022/04/23 05:54:46;;;;;;;16.13;13.60;;;;;;;11.79;63.18;98924.69;4995426;28;20497;-71
2022/04/23 05:57:11;;;;;;;14.27;12.80;;;;;;;11.71;63.60;98929.97;5001796;28;20401;-71
2022/04/23 05:59:36;;;;;;;15.53;12.20;;;;;;;11.73;63.80;98935.91;5003839;28;20406;-71
2022/04/23 06:02:03;;;;;;;12.60;11.37;;;;;;;11.90;63.28;98938.94;4988295;28;20890;-72
2022/04/23 06:04:29;;;;;;;11.45;10.45;;;;;;;11.81;63.40;98946.13;4991236;28;20909;-71
2022/04/23 06:06:55;;;;;;;11.35;10.13;;;;;;;11.79;63.79;98949.13;4990803;28;20909;-71
2022/04/23 06:09:21;;;;;;;10.32;9.43;;;;;;;11.98;63.29;98945.66;4990822;28;20417;-72
2022/04/23 06:11:46;;;;;;;10.52;9.57;;;;;;;12.04;62.83;98945.31;4989069;28;20407;-72
2022/04/23 06:14:11;;;;;;;10.40;9.40;;;;;;;12.04;63.08;98958.06;4983428;28;20418;-71
2022/04/23 06:16:37;;;;;;;12.07;9.93;;;;;;;12.05;63.03;98951.53;4994537;28;20418;-72
2022/04/23 06:19:03;;;;;;;11.83;9.70;;;;;;;12.03;63.08;98959.16;5003138;28;20492;-70
2022/04/23 06:21:28;;;;;;;11.17;9.87;;;;;;;12.03;62.99;98967.31;4993599;28;20430;-70
2022/04/23 06:23:53;;;;;;;11.35;10.20;;;;;;;12.08;63.15;98970.78;4993637;28;20426;-71
2022/04/23 06:26:18;;;;;;;11.87;9.73;;;;;;;12.00;63.22;98970.59;4995243;28;20410;-71
2022/04/23 06:28:44;;;;;;;10.63;9.67;;;;;;;11.93;63.58;98966.34;4994495;28;20775;-70
2022/04/23 06:31:09;;;;;;;11.00;10.00;;;;;;;11.94;63.58;98978.81;5005070;28;20462;-71
2022/04/23 06:33:34;;;;;;;10.80;9.87;;;;;;;12.02;63.32;98971.91;4989307;28;20947;-71
2022/04/23 06:36:00;;;;;;;10.55;9.55;;;;;;;12.10;63.05;98975.91;4993465;28;20965;-72
2022/04/23 06:38:25;;;;;;;10.87;9.87;;;;;;;12.03;63.36;98980.88;4994123;28;20417;-71
2022/04/23 06:40:51;;;;;;;11.30;10.30;;;;;;;11.97;63.08;98980.13;5009344;28;20444;-71
2022/04/23 06:43:17;;;;;;;11.48;9.68;;;;;;;12.05;63.37;98978.69;4997515;28;20400;-73
2022/04/23 06:45:42;;;;;;;10.90;10.00;;;;;;;12.19;62.88;98974.97;4998503;28;20995;-72
2022/04/23 06:48:08;;;;;;;10.47;9.47;;;;;;;12.26;62.89;98980.03;5005364;28;20496;-73
2022/04/23 06:50:35;;;;;;;11.57;10.37;;;;;;;12.17;63.01;98982.59;4997784;28;20417;-70
2022/04/23 06:53:01;;;;;;;19.00;10.97;;;;;;;12.13;63.02;98978.03;4990705;28;20410;-70
2022/04/23 06:55:27;;;;;;;18.95;10.38;;;;;;;12.14;62.90;98977.75;4995526;28;20815;-70
2022/04/23 06:57:53;;;;;;;13.55;10.40;;;;;;;12.20;63.31;98987.47;4991262;28;20431;-70
2022/04/23 07:00:21;;;;;;;11.00;10.02;;;;;;;12.32;62.79;98985.13;4991615;28;20425;-70
2022/04/23 07:02:46;;;;;;;11.32;10.30;;;;;;;12.39;62.61;98991.00;4994154;28;20770;-70
2022/04/23 07:05:11;;;;;;;11.35;10.30;;;;;;;12.34;62.68;98993.00;4993352;28;20411;-73
2022/04/23 07:07:37;;;;;;;10.57;9.67;;;;;;;12.50;62.35;98997.13;4997002;28;20439;-73
2022/04/23 07:10:02;;;;;;;11.03;10.03;;;;;;;12.55;62.05;98997.03;4995371;28;20414;-73
2022/04/23 07:12:28;;;;;;;12.40;9.77;;;;;;;12.64;61.94;99003.44;5005931;28;20410;-72
2022/04/23 07:14:53;;;;;;;11.52;10.25;;;;;;;12.70;61.48;98993.31;4992933;28;20402;-73
2022/04/23 07:17:26;;;;;;;10.47;9.60;;;;;;;12.72;61.69;98991.09;4993806;28;20402;-73
2022/04/23 07:19:53;;;;;;;10.88;9.73;;;;;;;12.80;61.42;98982.28;4993341;28;20402;-73
2022/04/23 07:22:19;;;;;;;11.65;10.63;;;;;;;12.71;61.66;98973.97;4999623;28;20521;-73
2022/04/23 07:24:52;;;;;;;13.17;9.93;;;;;;;12.78;61.57;98973.59;4994158;28;20481;-75
2022/04/23 07:27:18;;;;;;;11.27;10.18;;;;;;;12.81;61.26;98975.75;5027487;28;20418;-71
2022/04/23 07:29:49;;;;;;;11.10;9.93;;;;;;;12.93;61.01;98984.25;5002007;28;20394;-74
2022/04/23 07:32:15;;;;;;;11.30;10.17;;;;;;;12.92;61.12;98988.88;5005308;28;20461;-72
2022/04/23 07:37:34;;;;;;;11.47;10.03;;;;;;;13.17;60.42;98984.97;5002035;28;20385;-72
2022/04/23 07:40:01;;;;;;;16.98;9.90;;;;;;;13.20;60.41;98980.88;4994035;28;20398;-73
2022/04/23 07:42:27;;;;;;;9.98;9.10;;;;;;;13.40;60.07;98973.13;5001379;28;20930;-72
2022/04/23 07:44:53;;;;;;;10.27;9.38;;;;;;;13.58;59.79;98982.34;5004134;28;20403;-73
2022/04/23 07:47:19;;;;;;;11.40;9.65;;;;;;;13.66;58.97;98973.50;5003845;28;20485;-72
2022/04/23 07:49:45;;;;;;;11.57;9.50;;;;;;;13.65;58.91;98968.34;4978836;28;20414;-72
2022/04/23 07:52:10;;;;;;;10.20;9.30;;;;;;;13.61;58.63;98972.78;4978971;28;20417;-72
2022/04/23 07:54:38;;;;;;;10.03;9.13;;;;;;;13.67;59.06;98983.25;4977605;28;20407;-72
2022/04/23 07:57:06;;;;;;;14.43;10.63;;;;;;;13.65;58.74;98980.06;4985368;28;20415;-72
2022/04/23 07:59:31;;;;;;;12.30;9.18;;;;;;;13.65;58.85;98984.69;4978545;28;20410;-73
2022/04/23 08:01:56;;;;;;;10.68;9.65;;;;;;;13.54;58.72;98975.88;5023467;28;20421;-73
2022/04/23 08:04:22;;;;;;;12.30;9.30;;;;;;;13.67;58.79;98982.47;4983225;28;20442;-72
2022/04/23 08:06:47;;;;;;;9.93;9.07;;;;;;;13.89;58.88;98979.88;4977940;28;20506;-72
2022/04/23 08:09:12;;;;;;;9.85;8.93;;;;;;;14.00;58.23;98979.34;4975740;28;21020;-72
2022/04/23 08:11:37;;;;;;;10.73;9.73;;;;;;;13.95;58.10;98979.47;4982248;28;20422;-72
2022/04/23 08:14:03;;;;;;;10.40;9.50;;;;;;;13.99;57.96;98972.28;4976289;28;20481;-73
2022/04/23 08:16:29;;;;;;;9.95;9.15;;;;;;;14.03;57.60;98975.22;4977088;28;20477;-72
2022/04/23 08:18:55;;;;;;;10.50;9.38;;;;;;;14.18;57.59;98976.84;4983037;28;20769;-73
2022/04/23 08:21:20;;;;;;;9.68;8.80;;;;;;;14.33;57.67;98987.41;4976510;28;20548;-70
2022/04/23 08:23:46;;;;;;;10.93;9.15;;;;;;;14.36;56.62;98986.81;4976948;28;20454;-71
2022/04/23 08:26:11;;;;;;;9.83;8.53;;;;;;;14.27;56.36;98992.16;4977139;28;20414;-73
2022/04/23 08:31:21;;;;;;;9.40;8.40;;;;;;;14.44;55.98;98994.28;4978416;28;20432;-72
2022/04/23 08:34:04;;;;;;;11.68;7.95;;;;;;;14.35;56.04;98991.50;4976088;28;20911;-72
2022/04/23 08:36:35;;;;;;;8.32;7.57;;;;;;;14.40;56.37;98988.63;4972724;28;20479;-72
2022/04/23 08:39:04;;;;;;;8.55;7.85;;;;;;;14.53;55.87;98996.00;4973394;28;20782;-73
2022/04/23 08:41:29;;;;;;;8.40;7.45;;;;;;;14.66;55.82;98996.25;4975654;28;20513;-72
2022/04/23 08:44:05;;;;;;;6.80;6.30;;;;;;;14.79;55.39;98995.41;4976811;28;20494;-73
2022/04/23 08:46:35;;;;;;;7.45;6.85;;;;;;;14.95;54.91;98999.44;4977840;28;20445;-72
2022/04/23 08:49:27;;;;;;;6.93;6.28;;;;;;;14.89;54.29;98997.91;4976697;28;20496;-72
2022/04/23 08:51:54;;;;;;;7.03;6.53;;;;;;;14.93;54.02;98993.44;4975271;28;20493;-73
2022/04/23 08:54:22;;;;;;;6.95;6.22;;;;;;;15.03;54.24;98993.22;4980218;28;20422;-72
2022/04/23 08:56:48;;;;;;;6.32;5.93;;;;;;;15.17;53.66;98998.63;4972525;28;20421;-72
2022/04/23 08:59:16;;;;;;;6.53;5.97;;;;;;;15.40;53.22;99000.22;4978964;28;20410;-71
2022/04/23 09:01:44;;;;;;;5.40;5.03;;;;;;;15.63;52.60;98992.84;4976807;28;20435;-72
2022/04/23 09:04:11;;;;;;;5.75;5.20;;;;;;;15.63;52.21;98988.19;4979251;28;20414;-73
2022/04/23 09:06:42;;;;;;;6.43;5.07;;;;;;;15.67;51.91;98989.19;4976864;28;20422;-72
2022/04/23 09:09:10;;;;;;;5.32;4.95;;;;;;;15.74;51.74;98980.53;4989191;28;20395;-72
2022/04/23 09:11:36;;;;;;;17.33;6.25;;;;;;;15.75;51.36;98982.94;4997809;28;20406;-72
2022/04/23 09:14:06;;;;;;;19.20;6.07;;;;;;;15.74;51.55;98986.00;4991765;28;20488;-73
2022/04/23 09:25:06;;;;;;;5.40;4.72;;;;;;;16.41;50.34;98983.78;4984041;28;20433;-72
2022/04/23 09:27:34;;;;;;;4.55;4.32;;;;;;;16.79;49.36;98979.38;4981895;28;20446;-72
2022/04/23 09:30:01;;;;;;;4.50;4.30;;;;;;;16.91;49.19;98981.47;4974565;28;20413;-73
2022/04/23 09:32:27;;;;;;;5.13;4.63;;;;;;;17.11;48.86;98981.63;4975015;28;23626;-73
2022/04/23 09:35:12;;;;;;;4.15;3.92;;;;;;;17.26;47.95;98985.78;4980583;28;20410;-73
2022/04/23 09:40:26;;;;;;;4.40;4.00;;;;;;;17.49;47.40;98981.72;4978092;28;20477;-72
2022/04/23 09:43:02;;;;;;;4.88;4.22;;;;;;;17.44;47.21;98989.31;4990544;28;20422;-72
2022/04/23 09:45:29;;;;;;;4.80;4.40;;;;;;;17.41;47.39;98992.69;4975443;28;20430;-72
2022/04/23 09:48:16;;;;;;;4.80;4.40;;;;;;;17.30;47.56;98980.47;4982687;28;20449;-72
2022/04/23 09:50:44;;;;;;;4.70;4.30;;;;;;;17.33;47.35;98977.06;4995353;28;20480;-73
2022/04/23 09:53:10;;;;;;;4.97;3.80;;;;;;;17.16;47.66;98980.63;4973325;28;20410;-72
2022/04/23 09:55:36;;;;;;;3.92;3.72;;;;;;;17.41;47.86;98982.56;4970160;28;20416;-73
2022/04/23 09:58:07;;;;;;;3.83;3.63;;;;;;;17.97;46.19;98986.94;4977326;28;20489;-73
2022/04/23 10:00:35;;;;;;;6.28;4.13;;;;;;;18.06;45.46;98976.72;4992105;28;20497;-73
2022/04/23 10:03:01;;;;;;;4.75;3.78;;;;;;;18.14;45.47;98988.78;4975209;28;20419;-72
2022/04/23 10:05:28;;;;;;;3.70;3.45;;;;;;;18.26;45.30;98990.81;4977063;28;20414;-73
2022/04/23 10:07:56;;;;;;;3.30;3.07;;;;;;;17.98;45.31;98990.47;4973106;28;20420;-73
2022/04/23 10:10:26;;;;;;;4.25;4.05;;;;;;;17.66;45.68;98999.25;4972447;28;20504;-73
2022/04/23 10:12:52;;;;;;;3.77;3.10;;;;;;;17.79;45.28;98990.84;4979082;28;20422;-73
2022/04/23 10:15:17;;;;;;;3.50;3.20;;;;;;;17.65;45.42;98992.97;4975776;28;20415;-73
2022/04/23 10:17:43;;;;;;;3.60;3.40;;;;;;;17.47;46.07;98984.00;4973356;28;20491;-73
2022/04/23 10:20:11;;;;;;;3.55;3.28;;;;;;;17.47;46.41;98989.47;4988312;28;20416;-72
2022/04/23 10:23:00;;;;;;;3.35;3.05;;;;;;;17.62;45.53;98977.19;4997082;28;20817;-72
2022/04/23 10:25:53;;;;;;;3.28;3.17;;;;;;;17.95;45.60;98982.88;5001684;28;20766;-72
2022/04/23 10:28:19;;;;;;;3.60;3.30;;;;;;;18.09;44.89;98987.03;4975610;28;20410;-72
2022/04/23 10:30:46;;;;;;;4.13;2.60;;;;;;;18.55;44.25;98982.59;4977798;28;20461;-72
2022/04/23 10:33:28;;;;;;;3.97;3.50;;;;;;;19.66;40.99;98991.81;4974595;28;20414;-72
2022/04/23 10:36:10;;;;;;;3.60;3.40;;;;;;;20.14;39.73;98986.41;4967638;28;20426;-72
2022/04/23 10:38:38;;;;;;;2.92;2.72;;;;;;;20.76;40.00;98984.41;4999090;28;20476;-73
2022/04/23 10:41:05;;;;;;;3.55;3.35;;;;;;;21.38;37.26;98979.19;5000547;28;20422;-72
2022/04/23 10:43:31;;;;;;;3.38;3.17;;;;;;;21.03;38.20;98989.19;5004576;28;20402;-72
2022/04/23 10:45:59;;;;;;;4.15;3.22;;;;;;;21.66;36.98;98977.22;4993130;28;20398;-72
2022/04/23 10:48:29;;;;;;;3.22;2.92;;;;;;;21.58;36.59;98982.88;5002904;28;20401;-73
2022/04/23 10:51:05;;;;;;;3.30;3.05;;;;;;;21.59;37.22;98976.22;4995143;28;20881;-72
2022/04/23 10:53:41;;;;;;;2.90;2.80;;;;;;;21.94;36.61;98985.44;4998844;28;20408;-73
2022/04/23 10:56:11;;;;;;;3.83;3.53;;;;;;;22.45;35.28;98980.78;4986160;28;20400;-72
2022/04/23 10:58:40;;;;;;;4.18;3.42;;;;;;;21.87;36.09;98978.88;4996169;28;20409;-72
2022/04/23 11:01:31;;;;;;;3.03;2.93;;;;;;;21.43;36.62;98978.13;4997633;28;20495;-72
2022/04/23 11:03:56;;;;;;;4.97;4.50;;;;;;;20.54;38.63;98978.28;4999172;28;20415;-72
2022/04/23 11:12:32;;;;;;;4.10;3.83;;;;;;;20.64;38.65;98980.56;4989060;28;20497;-72
2022/04/23 11:15:00;;;;;;;3.60;3.03;;;;;;;21.54;37.41;98963.47;4984763;28;20411;-72
2022/04/23 11:17:30;;;;;;;6.63;3.20;;;;;;;22.03;36.11;98963.97;4997001;28;20489;-72
2022/04/23 11:19:55;;;;;;;3.17;3.08;;;;;;;22.05;35.84;98967.19;5004279;28;20454;-72
2022/04/23 11:22:21;;;;;;;3.07;2.97;;;;;;;22.19;35.48;98967.56;4991830;28;20841;-72
2022/04/23 11:24:53;;;;;;;2.65;2.38;;;;;;;21.79;36.16;98961.38;4995407;28;20403;-70
2022/04/23 11:27:33;;;;;;;4.75;3.03;;;;;;;21.69;36.57;98964.66;4996194;28;20533;-71
2022/04/23 11:29:59;;;;;;;3.60;3.20;;;;;;;21.32;37.00;98960.50;4996276;28;20406;-71
2022/04/23 11:32:33;;;;;;;3.35;3.20;;;;;;;21.20;37.34;98956.66;4994387;28;20422;-71
2022/04/23 11:35:04;;;;;;;3.58;3.28;;;;;;;21.48;36.46;98956.63;5002695;28;20432;-71
2022/04/23 11:37:31;;;;;;;2.90;2.70;;;;;;;22.06;36.30;98948.69;4994724;28;20401;-71
2022/04/23 11:40:28;;;;;;;2.97;2.67;;;;;;;22.12;35.98;98953.59;5003695;28;20465;-72
2022/04/23 11:42:53;;;;;;;3.17;2.88;;;;;;;22.21;36.35;98953.38;5001911;28;20907;-72
2022/04/23 11:45:20;;;;;;;3.57;3.37;;;;;;;22.35;35.41;98952.94;5030579;28;20453;-72